sensor_id;sensor_type;location;lat;lon;timestamp;pressure;altitude;pressure_sealevel;temperature;humidity
59411;BME280;45215;32.610;-115.482;2022-11-03T00:01:59;101309.34;;;20.53;49.03
59411;BME280;45215;32.610;-115.482;2022-11-03T00:04:25;101313.75;;;20.70;48.76
59411;BME280;45215;32.610;-115.482;2022-11-03T00:06:52;101315.47;;;20.87;48.10
59411;BME280;45215;32.610;-115.482;2022-11-03T00:09:18;101303.69;;;21.05;47.95
59411;BME280;45215;32.610;-115.482;2022-11-03T00:11:45;101295.94;;;21.18;47.09
59411;BME280;45215;32.610;-115.482;2022-11-03T00:14:12;101305.22;;;21.15;43.47
59411;BME280;45215;32.610;-115.482;2022-11-03T00:16:38;101302.97;;;20.54;46.46
59411;BME280;45215;32.610;-115.482;2022-11-03T00:19:05;101302.31;;;20.60;49.92
59411;BME280;45215;32.610;-115.482;2022-11-03T00:21:31;101304.84;;;20.69;48.93
59411;BME280;45215;32.610;-115.482;2022-11-03T00:23:57;101311.44;;;20.91;48.07
59411;BME280;45215;32.610;-115.482;2022-11-03T00:26:23;101307.06;;;21.07;47.53
59411;BME280;45215;32.610;-115.482;2022-11-03T00:28:50;101308.09;;;21.22;47.13
59411;BME280;45215;32.610;-115.482;2022-11-03T00:31:20;101308.06;;;20.98;43.00
59411;BME280;45215;32.610;-115.482;2022-11-03T00:33:46;101304.47;;;20.48;46.15
59411;BME280;45215;32.610;-115.482;2022-11-03T00:36:16;101312.41;;;20.58;49.21
59411;BME280;45215;32.610;-115.482;2022-11-03T00:38:42;101304.34;;;20.74;47.66
59411;BME280;45215;32.610;-115.482;2022-11-03T00:41:09;101300.78;;;20.90;47.51
59411;BME280;45215;32.610;-115.482;2022-11-03T00:43:35;101303.38;;;21.08;46.23
59411;BME280;45215;32.610;-115.482;2022-11-03T00:46:01;101300.16;;;21.21;46.68
59411;BME280;45215;32.610;-115.482;2022-11-03T00:48:27;101301.66;;;21.31;46.65
59411;BME280;45215;32.610;-115.482;2022-11-03T00:56:12;101300.47;;;20.68;47.79
59411;BME280;45215;32.610;-115.482;2022-11-03T00:58:38;101301.31;;;20.85;47.28
59411;BME280;45215;32.610;-115.482;2022-11-03T01:01:22;101290.50;;;21.02;46.63
59411;BME280;45215;32.610;-115.482;2022-11-03T01:03:50;101287.16;;;21.16;44.04
59411;BME280;45215;32.610;-115.482;2022-11-03T01:06:35;101282.59;;;21.25;42.93
59411;BME280;45215;32.610;-115.482;2022-11-03T01:09:17;101266.91;;;20.55;43.05
59411;BME280;45215;32.610;-115.482;2022-11-03T01:11:50;101266.06;;;20.54;48.01
59411;BME280;45215;32.610;-115.482;2022-11-03T01:14:17;101260.38;;;20.74;45.13
59411;BME280;45215;32.610;-115.482;2022-11-03T01:16:43;101271.97;;;20.90;44.72
59411;BME280;45215;32.610;-115.482;2022-11-03T01:19:09;101280.09;;;21.07;42.41
59411;BME280;45215;32.610;-115.482;2022-11-03T01:21:35;101285.63;;;21.22;42.56
59411;BME280;45215;32.610;-115.482;2022-11-03T01:24:01;101292.50;;;20.50;42.06
59411;BME280;45215;32.610;-115.482;2022-11-03T01:26:27;101290.13;;;20.47;46.37
59411;BME280;45215;32.610;-115.482;2022-11-03T01:28:53;101294.03;;;20.61;45.32
59411;BME280;45215;32.610;-115.482;2022-11-03T01:31:20;101305.69;;;20.78;42.88
59411;BME280;45215;32.610;-115.482;2022-11-03T01:33:48;101311.94;;;20.95;43.87
59411;BME280;45215;32.610;-115.482;2022-11-03T01:36:13;101317.38;;;21.11;42.75
59411;BME280;45215;32.610;-115.482;2022-11-03T01:38:40;101318.88;;;21.22;43.88
59411;BME280;45215;32.610;-115.482;2022-11-03T01:41:08;101337.09;;;21.28;41.95
59411;BME280;45215;32.610;-115.482;2022-11-03T01:43:36;101344.31;;;21.36;43.40
59411;BME280;45215;32.610;-115.482;2022-11-03T01:49:01;101352.25;;;21.46;43.12
59411;BME280;45215;32.610;-115.482;2022-11-03T01:51:28;101345.47;;;21.50;40.93
59411;BME280;45215;32.610;-115.482;2022-11-03T01:53:55;101362.00;;;21.55;39.99
59411;BME280;45215;32.610;-115.482;2022-11-03T01:56:22;101367.06;;;21.58;40.19
59411;BME280;45215;32.610;-115.482;2022-11-03T01:58:48;101372.97;;;21.61;40.83
59411;BME280;45215;32.610;-115.482;2022-11-03T02:01:15;101373.63;;;21.64;41.28
59411;BME280;45215;32.610;-115.482;2022-11-03T02:03:44;101383.25;;;21.66;40.48
59411;BME280;45215;32.610;-115.482;2022-11-03T02:06:11;101373.13;;;21.68;39.61
59411;BME280;45215;32.610;-115.482;2022-11-03T02:08:39;101381.03;;;21.70;40.04
59411;BME280;45215;32.610;-115.482;2022-11-03T02:11:06;101394.19;;;21.73;40.78
59411;BME280;45215;32.610;-115.482;2022-11-03T02:13:58;101394.88;;;21.75;41.00
59411;BME280;45215;32.610;-115.482;2022-11-03T02:16:24;101392.03;;;21.76;41.23
59411;BME280;45215;32.610;-115.482;2022-11-03T02:18:52;101399.09;;;21.77;40.46
59411;BME280;45215;32.610;-115.482;2022-11-03T02:24:23;101398.75;;;21.80;40.73
59411;BME280;45215;32.610;-115.482;2022-11-03T02:26:56;101417.50;;;21.82;41.18
59411;BME280;45215;32.610;-115.482;2022-11-03T02:29:22;101420.00;;;21.83;42.12
59411;BME280;45215;32.610;-115.482;2022-11-03T02:31:57;101421.72;;;21.84;42.21
59411;BME280;45215;32.610;-115.482;2022-11-03T02:37:15;101428.81;;;21.86;42.43
59411;BME280;45215;32.610;-115.482;2022-11-03T02:39:53;101425.09;;;21.87;42.02
59411;BME280;45215;32.610;-115.482;2022-11-03T02:42:21;101417.69;;;21.89;42.63
59411;BME280;45215;32.610;-115.482;2022-11-03T02:44:48;101430.16;;;21.90;42.73
59411;BME280;45215;32.610;-115.482;2022-11-03T02:47:13;101426.28;;;21.92;42.94
59411;BME280;45215;32.610;-115.482;2022-11-03T02:49:45;101414.63;;;21.92;43.27
59411;BME280;45215;32.610;-115.482;2022-11-03T02:54:55;101426.13;;;21.94;41.91
59411;BME280;45215;32.610;-115.482;2022-11-03T02:57:22;101428.81;;;21.94;42.15
59411;BME280;45215;32.610;-115.482;2022-11-03T02:59:52;101425.78;;;21.97;42.69
59411;BME280;45215;32.610;-115.482;2022-11-03T03:02:28;101424.06;;;21.96;42.10
59411;BME280;45215;32.610;-115.482;2022-11-03T03:04:56;101414.97;;;21.97;42.72
59411;BME280;45215;32.610;-115.482;2022-11-03T03:07:28;101427.44;;;21.98;42.32
59411;BME280;45215;32.610;-115.482;2022-11-03T03:09:57;101418.34;;;21.99;42.69
59411;BME280;45215;32.610;-115.482;2022-11-03T03:12:25;101421.06;;;21.99;42.49
59411;BME280;45215;32.610;-115.482;2022-11-03T03:14:51;101431.66;;;22.00;41.93
59411;BME280;45215;32.610;-115.482;2022-11-03T03:17:22;101425.44;;;22.00;41.73
59411;BME280;45215;32.610;-115.482;2022-11-03T03:19:52;101443.31;;;22.01;41.26
59411;BME280;45215;32.610;-115.482;2022-11-03T03:22:43;101451.25;;;22.02;41.29
59411;BME280;45215;32.610;-115.482;2022-11-03T03:25:11;101449.41;;;22.03;41.29
59411;BME280;45215;32.610;-115.482;2022-11-03T03:27:40;101450.06;;;22.05;42.26
59411;BME280;45215;32.610;-115.482;2022-11-03T03:30:06;101450.06;;;22.05;41.95
59411;BME280;45215;32.610;-115.482;2022-11-03T03:32:43;101463.59;;;22.05;41.74
59411;BME280;45215;32.610;-115.482;2022-11-03T03:35:14;101465.25;;;22.06;41.91
59411;BME280;45215;32.610;-115.482;2022-11-03T03:37:43;101463.41;;;22.06;41.78
59411;BME280;45215;32.610;-115.482;2022-11-03T03:40:10;101473.38;;;22.06;42.13
59411;BME280;45215;32.610;-115.482;2022-11-03T03:42:39;101475.03;;;22.07;42.41
59411;BME280;45215;32.610;-115.482;2022-11-03T03:45:08;101486.88;;;22.06;42.04
59411;BME280;45215;32.610;-115.482;2022-11-03T03:47:35;101497.53;;;22.08;41.80
59411;BME280;45215;32.610;-115.482;2022-11-03T03:50:01;101505.78;;;22.06;41.99
59411;BME280;45215;32.610;-115.482;2022-11-03T03:52:26;101516.94;;;22.03;41.63
59411;BME280;45215;32.610;-115.482;2022-11-03T03:54:53;101506.47;;;22.00;41.25
59411;BME280;45215;32.610;-115.482;2022-11-03T03:57:21;101504.47;;;22.02;41.54
59411;BME280;45215;32.610;-115.482;2022-11-03T03:59:47;101496.69;;;21.99;40.92
59411;BME280;45215;32.610;-115.482;2022-11-03T04:02:13;101490.59;;;21.97;40.68
59411;BME280;45215;32.610;-115.482;2022-11-03T04:04:40;101484.53;;;21.95;40.43
59411;BME280;45215;32.610;-115.482;2022-11-03T04:07:06;101482.50;;;21.89;39.61
59411;BME280;45215;32.610;-115.482;2022-11-03T04:09:50;101470.34;;;21.84;39.60
59411;BME280;45215;32.610;-115.482;2022-11-03T04:12:15;101458.19;;;21.80;38.93
59411;BME280;45215;32.610;-115.482;2022-11-03T04:15:00;101452.28;;;21.77;38.26
59411;BME280;45215;32.610;-115.482;2022-11-03T04:17:44;101464.25;;;21.74;39.23
59411;BME280;45215;32.610;-115.482;2022-11-03T04:20:29;101458.84;;;21.74;38.66
59411;BME280;45215;32.610;-115.482;2022-11-03T04:23:13;101453.13;;;21.61;37.87
59411;BME280;45215;32.610;-115.482;2022-11-03T04:25:39;101451.41;;;21.27;39.38
59411;BME280;45215;32.610;-115.482;2022-11-03T04:28:09;101435.09;;;21.45;38.57
59411;BME280;45215;32.610;-115.482;2022-11-03T04:30:37;101427.16;;;21.52;38.13
59411;BME280;45215;32.610;-115.482;2022-11-03T04:33:03;101427.47;;;21.57;39.54
59411;BME280;45215;32.610;-115.482;2022-11-03T04:35:29;101429.50;;;21.63;39.33
59411;BME280;45215;32.610;-115.482;2022-11-03T04:37:57;101421.41;;;21.63;38.57
59411;BME280;45215;32.610;-115.482;2022-11-03T04:40:25;101413.66;;;21.60;37.71
59411;BME280;45215;32.610;-115.482;2022-11-03T04:42:51;101422.09;;;21.65;40.00
59411;BME280;45215;32.610;-115.482;2022-11-03T04:45:50;101432.53;;;21.68;39.18
59411;BME280;45215;32.610;-115.482;2022-11-03T04:48:13;101437.59;;;21.71;39.24
59411;BME280;45215;32.610;-115.482;2022-11-03T04:50:39;101430.34;;;21.72;38.89
59411;BME280;45215;32.610;-115.482;2022-11-03T04:53:09;101439.28;;;21.72;38.88
59411;BME280;45215;32.610;-115.482;2022-11-03T04:55:40;101435.06;;;21.70;38.63
59411;BME280;45215;32.610;-115.482;2022-11-03T04:58:26;101438.59;;;21.70;39.28
59411;BME280;45215;32.610;-115.482;2022-11-03T05:00:53;101436.91;;;21.69;39.58
59411;BME280;45215;32.610;-115.482;2022-11-03T05:03:31;101432.53;;;21.68;38.78
59411;BME280;45215;32.610;-115.482;2022-11-03T05:05:59;101433.38;;;21.69;38.91
59411;BME280;45215;32.610;-115.482;2022-11-03T05:08:26;101433.88;;;21.64;38.86
59411;BME280;45215;32.610;-115.482;2022-11-03T05:10:52;101451.59;;;21.67;38.64
59411;BME280;45215;32.610;-115.482;2022-11-03T05:13:20;101438.63;;;21.62;39.38
59411;BME280;45215;32.610;-115.482;2022-11-03T05:15:47;101445.69;;;21.71;39.60
59411;BME280;45215;32.610;-115.482;2022-11-03T05:20:42;101438.59;;;21.70;38.89
59411;BME280;45215;32.610;-115.482;2022-11-03T05:23:09;101451.25;;;21.70;39.83
59411;BME280;45215;32.610;-115.482;2022-11-03T05:25:41;101451.25;;;21.70;39.58
59411;BME280;45215;32.610;-115.482;2022-11-03T05:28:22;101437.94;;;21.68;38.85
59411;BME280;45215;32.610;-115.482;2022-11-03T05:30:48;101448.41;;;21.71;39.85
59411;BME280;45215;32.610;-115.482;2022-11-03T05:33:19;101442.31;;;21.69;39.33
59411;BME280;45215;32.610;-115.482;2022-11-03T05:35:46;101449.59;;;21.69;39.18
59411;BME280;45215;32.610;-115.482;2022-11-03T05:38:13;101447.22;;;21.66;38.82
59411;BME280;45215;32.610;-115.482;2022-11-03T05:40:39;101443.16;;;21.61;38.98
59411;BME280;45215;32.610;-115.482;2022-11-03T05:43:09;101443.47;;;21.09;36.35
59411;BME280;45215;32.610;-115.482;2022-11-03T05:45:38;101455.13;;;21.26;39.36
59411;BME280;45215;32.610;-115.482;2022-11-03T05:50:48;101463.94;;;21.45;39.47
59411;BME280;45215;32.610;-115.482;2022-11-03T05:53:47;101470.50;;;21.50;39.50
59411;BME280;45215;32.610;-115.482;2022-11-03T05:56:11;101469.16;;;21.54;39.11
59411;BME280;45215;32.610;-115.482;2022-11-03T05:58:42;101475.25;;;21.56;39.51
59411;BME280;45215;32.610;-115.482;2022-11-03T06:03:53;101457.34;;;21.64;40.17
59411;BME280;45215;32.610;-115.482;2022-11-03T06:06:26;101456.16;;;21.66;40.48
59411;BME280;45215;32.610;-115.482;2022-11-03T06:08:54;101452.28;;;21.69;40.97
59411;BME280;45215;32.610;-115.482;2022-11-03T06:11:31;101452.09;;;21.70;40.56
59411;BME280;45215;32.610;-115.482;2022-11-03T06:13:57;101447.38;;;21.72;40.50
59411;BME280;45215;32.610;-115.482;2022-11-03T06:16:37;101452.09;;;21.70;40.68
59411;BME280;45215;32.610;-115.482;2022-11-03T06:19:46;101446.53;;;21.72;40.38
59411;BME280;45215;32.610;-115.482;2022-11-03T06:21:54;101452.09;;;21.70;40.20
59411;BME280;45215;32.610;-115.482;2022-11-03T06:24:21;101451.94;;;21.72;40.10
59411;BME280;45215;32.610;-115.482;2022-11-03T06:26:47;101445.69;;;21.71;40.56
59411;BME280;45215;32.610;-115.482;2022-11-03T06:29:15;101438.28;;;21.73;40.47
59411;BME280;45215;32.610;-115.482;2022-11-03T06:31:41;101450.91;;;21.73;40.77
59411;BME280;45215;32.610;-115.482;2022-11-03T06:36:57;101435.25;;;21.76;41.03
59411;BME280;45215;32.610;-115.482;2022-11-03T06:39:23;101446.69;;;21.78;41.04
59411;BME280;45215;32.610;-115.482;2022-11-03T06:41:49;101426.09;;;21.77;41.42
59411;BME280;45215;32.610;-115.482;2022-11-03T06:44:22;101416.16;;;21.78;40.90
59411;BME280;45215;32.610;-115.482;2022-11-03T06:46:59;101404.50;;;21.77;41.20
59411;BME280;45215;32.610;-115.482;2022-11-03T06:49:30;101421.72;;;21.76;40.03
59411;BME280;45215;32.610;-115.482;2022-11-03T06:51:57;101405.53;;;21.76;40.86
59411;BME280;45215;32.610;-115.482;2022-11-03T06:54:23;101411.94;;;21.75;40.71
59411;BME280;45215;32.610;-115.482;2022-11-03T06:56:49;101405.69;;;21.75;40.75
59411;BME280;45215;32.610;-115.482;2022-11-03T06:59:15;101398.75;;;21.72;39.97
59411;BME280;45215;32.610;-115.482;2022-11-03T07:01:43;101398.09;;;21.70;40.21
59411;BME280;45215;32.610;-115.482;2022-11-03T07:06:36;101408.41;;;21.67;40.17
59411;BME280;45215;32.610;-115.482;2022-11-03T07:09:05;101391.34;;;21.66;40.34
59411;BME280;45215;32.610;-115.482;2022-11-03T07:11:40;101392.88;;;21.69;40.77
59411;BME280;45215;32.610;-115.482;2022-11-03T07:14:14;101394.75;;;21.68;40.42
59411;BME280;45215;32.610;-115.482;2022-11-03T07:16:41;101393.03;;;21.67;40.09
59411;BME280;45215;32.610;-115.482;2022-11-03T07:19:18;101373.28;;;21.67;39.84
59411;BME280;45215;32.610;-115.482;2022-11-03T07:24:19;101389.69;;;21.65;40.23
59411;BME280;45215;32.610;-115.482;2022-11-03T07:26:46;101388.66;;;21.66;40.30
59411;BME280;45215;32.610;-115.482;2022-11-03T07:29:15;101393.22;;;21.66;39.71
59411;BME280;45215;32.610;-115.482;2022-11-03T07:31:42;101408.75;;;21.64;39.95
59411;BME280;45215;32.610;-115.482;2022-11-03T07:34:10;101411.44;;;21.64;39.93
59411;BME280;45215;32.610;-115.482;2022-11-03T07:36:38;101404.19;;;21.64;40.03
59411;BME280;45215;32.610;-115.482;2022-11-03T07:39:04;101416.84;;;21.64;39.94
59411;BME280;45215;32.610;-115.482;2022-11-03T07:41:31;101422.78;;;21.59;39.80
59411;BME280;45215;32.610;-115.482;2022-11-03T07:43:58;101422.78;;;21.59;40.32
59411;BME280;45215;32.610;-115.482;2022-11-03T07:46:24;101426.13;;;21.61;40.31
59411;BME280;45215;32.610;-115.482;2022-11-03T07:51:23;101437.94;;;21.60;40.37
59411;BME280;45215;32.610;-115.482;2022-11-03T07:53:51;101429.84;;;21.60;40.26
59411;BME280;45215;32.610;-115.482;2022-11-03T07:58:43;101431.88;;;21.58;40.31
59411;BME280;45215;32.610;-115.482;2022-11-03T08:01:23;101433.56;;;21.59;40.06
59411;BME280;45215;32.610;-115.482;2022-11-03T08:03:50;101423.75;;;21.58;40.21
59411;BME280;45215;32.610;-115.482;2022-11-03T08:06:15;101421.06;;;21.58;40.24
59411;BME280;45215;32.610;-115.482;2022-11-03T08:08:41;101436.28;;;21.59;39.68
59411;BME280;45215;32.610;-115.482;2022-11-03T08:11:07;101424.00;;;20.81;40.41
59411;BME280;45215;32.610;-115.482;2022-11-03T08:13:33;101429.03;;;20.68;44.07
59411;BME280;45215;32.610;-115.482;2022-11-03T08:15:59;101420.44;;;20.72;44.19
59411;BME280;45215;32.610;-115.482;2022-11-03T08:18:24;101420.31;;;20.82;41.54
59411;BME280;45215;32.610;-115.482;2022-11-03T08:20:50;101421.66;;;20.94;42.84
59411;BME280;45215;32.610;-115.482;2022-11-03T08:23:16;101422.69;;;21.02;42.67
59411;BME280;45215;32.610;-115.482;2022-11-03T08:25:42;101427.63;;;21.06;42.82
59411;BME280;45215;32.610;-115.482;2022-11-03T08:28:08;101420.72;;;21.12;42.72
59411;BME280;45215;32.610;-115.482;2022-11-03T08:30:33;101424.75;;;21.16;42.57
59411;BME280;45215;32.610;-115.482;2022-11-03T08:32:59;101427.81;;;21.21;42.03
59411;BME280;45215;32.610;-115.482;2022-11-03T08:35:25;101419.38;;;21.24;41.73
59411;BME280;45215;32.610;-115.482;2022-11-03T08:37:51;101426.78;;;21.30;42.07
59411;BME280;45215;32.610;-115.482;2022-11-03T08:40:17;101422.75;;;21.34;41.74
59411;BME280;45215;32.610;-115.482;2022-11-03T08:42:43;101422.41;;;21.37;41.62
59411;BME280;45215;32.610;-115.482;2022-11-03T08:45:09;101427.66;;;21.39;41.44
59411;BME280;45215;32.610;-115.482;2022-11-03T08:47:35;101438.28;;;21.41;41.83
59411;BME280;45215;32.610;-115.482;2022-11-03T08:50:02;101448.91;;;21.42;41.44
59411;BME280;45215;32.610;-115.482;2022-11-03T08:52:28;101447.75;;;21.45;41.91
59411;BME280;45215;32.610;-115.482;2022-11-03T08:54:54;101453.16;;;21.45;40.70
59411;BME280;45215;32.610;-115.482;2022-11-03T08:57:19;101446.88;;;21.44;40.94
59411;BME280;45215;32.610;-115.482;2022-11-03T08:59:45;101448.91;;;21.42;40.66
59411;BME280;45215;32.610;-115.482;2022-11-03T09:02:11;101450.94;;;21.40;40.91
59411;BME280;45215;32.610;-115.482;2022-11-03T09:04:37;101455.50;;;21.39;40.82
59411;BME280;45215;32.610;-115.482;2022-11-03T09:07:02;101466.63;;;21.36;40.96
59411;BME280;45215;32.610;-115.482;2022-11-03T09:09:28;101461.56;;;21.33;40.78
59411;BME280;45215;32.610;-115.482;2022-11-03T09:11:54;101476.06;;;21.32;40.64
59411;BME280;45215;32.610;-115.482;2022-11-03T09:14:21;101469.81;;;21.32;40.60
59411;BME280;45215;32.610;-115.482;2022-11-03T09:16:47;101471.69;;;21.31;40.76
59411;BME280;45215;32.610;-115.482;2022-11-03T09:19:13;101481.44;;;21.32;40.71
59411;BME280;45215;32.610;-115.482;2022-11-03T09:21:39;101473.53;;;21.31;40.59
59411;BME280;45215;32.610;-115.482;2022-11-03T09:24:04;101466.09;;;21.33;41.25
59411;BME280;45215;32.610;-115.482;2022-11-03T09:26:31;101471.69;;;21.31;40.41
59411;BME280;45215;32.610;-115.482;2022-11-03T09:28:57;101460.69;;;21.33;40.88
59411;BME280;45215;32.610;-115.482;2022-11-03T09:31:23;101459.84;;;21.32;40.47
59411;BME280;45215;32.610;-115.482;2022-11-03T09:33:52;101452.44;;;21.34;40.82
59411;BME280;45215;32.610;-115.482;2022-11-03T09:36:18;101448.72;;;21.35;40.53
59411;BME280;45215;32.610;-115.482;2022-11-03T09:38:44;101442.34;;;21.36;40.77
59411;BME280;45215;32.610;-115.482;2022-11-03T09:41:10;101438.63;;;21.37;41.17
59411;BME280;45215;32.610;-115.482;2022-11-03T09:43:45;101438.47;;;21.39;41.01
59411;BME280;45215;32.610;-115.482;2022-11-03T09:46:12;101427.66;;;21.39;40.50
59411;BME280;45215;32.610;-115.482;2022-11-03T09:48:38;101430.53;;;21.37;40.60
59411;BME280;45215;32.610;-115.482;2022-11-03T09:51:04;101431.69;;;21.35;40.05
59411;BME280;45215;32.610;-115.482;2022-11-03T09:53:31;101418.88;;;21.37;41.26
59411;BME280;45215;32.610;-115.482;2022-11-03T09:55:57;101408.94;;;21.37;41.05
59411;BME280;45215;32.610;-115.482;2022-11-03T09:58:22;101413.31;;;21.38;40.63
59411;BME280;45215;32.610;-115.482;2022-11-03T10:00:48;101407.91;;;21.38;40.59
59411;BME280;45215;32.610;-115.482;2022-11-03T10:03:16;101410.59;;;21.38;40.80
59411;BME280;45215;32.610;-115.482;2022-11-03T10:05:45;101411.47;;;21.39;40.64
59411;BME280;45215;32.610;-115.482;2022-11-03T10:11:06;101401.84;;;21.36;40.50
59411;BME280;45215;32.610;-115.482;2022-11-03T10:13:35;101397.44;;;21.35;40.75
59411;BME280;45215;32.610;-115.482;2022-11-03T10:16:02;101398.47;;;21.34;40.55
59411;BME280;45215;32.610;-115.482;2022-11-03T10:18:29;101403.03;;;21.34;40.37
59411;BME280;45215;32.610;-115.482;2022-11-03T10:20:55;101405.72;;;21.34;40.49
59411;BME280;45215;32.610;-115.482;2022-11-03T10:23:23;101403.19;;;21.32;40.90
59411;BME280;45215;32.610;-115.482;2022-11-03T10:25:49;101403.19;;;21.32;40.55
59411;BME280;45215;32.610;-115.482;2022-11-03T10:30:50;101401.50;;;21.31;40.44
59411;BME280;45215;32.610;-115.482;2022-11-03T10:36:04;101407.06;;;21.30;40.67
59411;BME280;45215;32.610;-115.482;2022-11-03T10:38:37;101401.84;;;21.28;40.67
59411;BME280;45215;32.610;-115.482;2022-11-03T10:41:10;101409.94;;;21.28;40.62
59411;BME280;45215;32.610;-115.482;2022-11-03T10:43:39;101398.13;;;21.29;41.01
59411;BME280;45215;32.610;-115.482;2022-11-03T10:46:09;101389.00;;;21.30;41.14
59411;BME280;45215;32.610;-115.482;2022-11-03T10:48:35;101384.63;;;21.29;41.01
59411;BME280;45215;32.610;-115.482;2022-11-03T10:51:01;101386.50;;;21.29;40.73
59411;BME280;45215;32.610;-115.482;2022-11-03T10:53:27;101391.72;;;21.30;41.01
59411;BME280;45215;32.610;-115.482;2022-11-03T10:55:53;101388.84;;;21.32;41.05
59411;BME280;45215;32.610;-115.482;2022-11-03T10:58:20;101389.69;;;21.32;41.44
59411;BME280;45215;32.610;-115.482;2022-11-03T11:00:46;101390.53;;;21.33;41.34
59411;BME280;45215;32.610;-115.482;2022-11-03T11:03:12;101382.28;;;21.34;41.57
59411;BME280;45215;32.610;-115.482;2022-11-03T11:05:42;101380.59;;;21.33;41.28
59411;BME280;45215;32.610;-115.482;2022-11-03T11:08:08;101386.00;;;21.33;41.02
59411;BME280;45215;32.610;-115.482;2022-11-03T11:10:34;101394.25;;;21.32;41.28
59411;BME280;45215;32.610;-115.482;2022-11-03T11:13:04;101389.69;;;21.32;41.56
59411;BME280;45215;32.610;-115.482;2022-11-03T11:15:35;101405.88;;;21.32;40.96
59411;BME280;45215;32.610;-115.482;2022-11-03T11:18:02;101393.06;;;21.26;41.59
59411;BME280;45215;32.610;-115.482;2022-11-03T11:20:29;101399.31;;;21.27;41.25
59411;BME280;45215;32.610;-115.482;2022-11-03T11:22:55;101396.44;;;21.28;41.20
59411;BME280;45215;32.610;-115.482;2022-11-03T11:26:28;101393.41;;;21.23;41.26
59411;BME280;45215;32.610;-115.482;2022-11-03T11:28:27;101399.16;;;21.20;40.92
59411;BME280;45215;32.610;-115.482;2022-11-03T11:33:22;101413.47;;;21.21;41.89
59411;BME280;45215;32.610;-115.482;2022-11-03T11:40:58;101425.44;;;21.18;41.50
59411;BME280;45215;32.610;-115.482;2022-11-03T11:43:24;101424.75;;;21.16;41.99
59411;BME280;45215;32.610;-115.482;2022-11-03T11:48:35;101429.50;;;21.14;41.18
59411;BME280;45215;32.610;-115.482;2022-11-03T11:51:01;101430.50;;;21.13;40.98
59411;BME280;45215;32.610;-115.482;2022-11-03T11:53:33;101433.19;;;21.13;41.03
59411;BME280;45215;32.610;-115.482;2022-11-03T11:56:02;101432.00;;;21.15;41.30
59411;BME280;45215;32.610;-115.482;2022-11-03T12:03:26;101424.09;;;21.14;40.94
59411;BME280;45215;32.610;-115.482;2022-11-03T12:05:53;101424.09;;;21.14;40.90
59411;BME280;45215;32.610;-115.482;2022-11-03T12:08:22;101432.19;;;21.14;41.53
59411;BME280;45215;32.610;-115.482;2022-11-03T12:10:53;101421.41;;;21.14;41.14
59411;BME280;45215;32.610;-115.482;2022-11-03T12:13:35;101423.25;;;21.13;41.51
59411;BME280;45215;32.610;-115.482;2022-11-03T12:16:03;101425.09;;;21.13;40.71
59411;BME280;45215;32.610;-115.482;2022-11-03T12:18:37;101419.88;;;21.11;41.55
59411;BME280;45215;32.610;-115.482;2022-11-03T12:21:04;101427.78;;;21.13;41.32
59411;BME280;45215;32.610;-115.482;2022-11-03T12:23:51;101433.19;;;21.13;41.37
59411;BME280;45215;32.610;-115.482;2022-11-03T12:28:42;101430.34;;;21.14;41.39
59411;BME280;45215;32.610;-115.482;2022-11-03T12:31:08;101424.94;;;21.14;41.51
59411;BME280;45215;32.610;-115.482;2022-11-03T12:33:34;101433.19;;;21.13;41.69
59411;BME280;45215;32.610;-115.482;2022-11-03T12:36:00;101422.38;;;21.13;41.80
59411;BME280;45215;32.610;-115.482;2022-11-03T12:38:25;101419.03;;;21.11;41.70
59411;BME280;45215;32.610;-115.482;2022-11-03T12:40:52;101428.13;;;21.10;41.42
59411;BME280;45215;32.610;-115.482;2022-11-03T12:43:20;101436.06;;;21.11;41.82
59411;BME280;45215;32.610;-115.482;2022-11-03T12:45:46;101435.03;;;21.12;41.30
59411;BME280;45215;32.610;-115.482;2022-11-03T12:48:12;101438.91;;;21.10;42.29
59411;BME280;45215;32.610;-115.482;2022-11-03T12:50:38;101454.13;;;21.11;42.27
59411;BME280;45215;32.610;-115.482;2022-11-03T12:53:04;101455.94;;;21.10;42.10
59411;BME280;45215;32.610;-115.482;2022-11-03T12:55:31;101452.75;;;21.07;42.67
59411;BME280;45215;32.610;-115.482;2022-11-03T12:57:57;101458.47;;;21.04;40.04
59411;BME280;45215;32.610;-115.482;2022-11-03T13:00:23;101459.44;;;20.94;39.87
59411;BME280;45215;32.610;-115.482;2022-11-03T13:02:48;101471.88;;;20.87;39.94
59411;BME280;45215;32.610;-115.482;2022-11-03T13:05:14;101459.72;;;20.83;40.57
59411;BME280;45215;32.610;-115.482;2022-11-03T13:07:41;101465.47;;;20.80;40.79
59411;BME280;45215;32.610;-115.482;2022-11-03T13:10:07;101453.97;;;20.78;40.32
59411;BME280;45215;32.610;-115.482;2022-11-03T13:12:33;101453.63;;;20.73;40.72
59411;BME280;45215;32.610;-115.482;2022-11-03T13:15:05;101449.09;;;20.74;41.29
59411;BME280;45215;32.610;-115.482;2022-11-03T13:17:31;101442.84;;;20.73;41.05
59411;BME280;45215;32.610;-115.482;2022-11-03T13:19:58;101449.94;;;20.74;41.17
59411;BME280;45215;32.610;-115.482;2022-11-03T13:22:24;101452.28;;;20.69;40.84
59411;BME280;45215;32.610;-115.482;2022-11-03T13:24:49;101462.22;;;20.68;41.03
59411;BME280;45215;32.610;-115.482;2022-11-03T13:27:15;101459.34;;;20.70;41.19
59411;BME280;45215;32.610;-115.482;2022-11-03T13:29:41;101463.75;;;20.71;41.28
59411;BME280;45215;32.610;-115.482;2022-11-03T13:32:07;101467.78;;;20.75;41.89